Back to Top

Current Local METAR Station Weather Reports...

Local METAR Reports

Local METAR Reports

 

EGCN - Doncaster Sheffield Airport, United Kingdom
Distance from station: E 20mi, 32km
Updated: Wed, 19-Jun-2019 9:50am BST
Overcast
Overcast
 Wind from ESE
Wind: ESE 3 mph , 6 km/h
Temperature: 14°C
Dew Point: 14°C
Humidity: 100%
Barometer: 1008 hPa
Clouds: Overcast
Visibility: 4 miles , 6 km
Cloud details: Mostly Cloudy 30 m
Overcast 152 m
2019/06/19 08:50 EGCN 190850Z 12003KT 6000 BKN001 OVC005 14/14 Q1008
EGNM - Leeds Bradford International, United Kingdom
Distance from station: NNW 24mi, 39km
Updated: Wed, 19-Jun-2019 9:50am BST
Mostly Cloudy
Mostly Cloudy
 Wind from varies
Wind: varies 2 mph , 4 km/h
Temperature: 12°C
Dew Point: 11°C
Humidity: 94%
Barometer: 1008 hPa
Clouds: Mostly Cloudy
Visibility: 6 miles , 10 km
Cloud details: Few Clouds 91 m
Partly Cloudy 244 m
Mostly Cloudy 366 m
2019/06/19 08:50 EGNM 190850Z VRB02KT 9999 FEW003 SCT008 BKN012 12/11 Q1008
 
EGCC - Manchester International, United Kingdom
Distance from station: WSW 35mi, 56km
Updated: Wed, 19-Jun-2019 9:50am BST
Clear
Clear
 Wind from varies
Wind: varies 1 mph , 2 km/h
Temperature: 15°C
Dew Point: 11°C
Humidity: 77%
Barometer: 1008 hPa
Clouds: Clear
Visibility: 6 miles , 10 km
2019/06/19 08:50 EGCC 190850Z AUTO VRB01KT 9999 NCD 15/11 Q1008
EGXU - Linton-On-Ouse RAF, United Kingdom
Distance from station: NNE 37mi, 60km
Updated: Wed, 19-Jun-2019 9:50am BST
Light rain, Overcast
Light rain, Overcast
 Wind from NW
Wind: NW 13 mph , 20 km/h
Temperature: 12°C
Dew Point: 11°C
Humidity: 94%
Barometer: 1008 hPa
Summary: Light Rain
Clouds: Overcast
Visibility: 3 miles , 5 km
Cloud details: Partly Cloudy 122 m
Overcast 183 m
2019/06/19 08:50 EGXU 190850Z 32011KT 5000 -RA SCT004 OVC006 12/11 Q1008 BECMG 9999 NSW BKN005 RMK YLO2 BECMG YLO1
 
EGXP - Scampton RAF, United Kingdom
Distance from station: ESE 41mi, 66km
Updated: Wed, 19-Jun-2019 9:50am BST
Mostly Cloudy
Mostly Cloudy
 Wind from SSW
Wind: SSW 2 mph , 4 km/h
Temperature: 15°C
Dew Point: 13°C
Humidity: 88%
Barometer: 1007 hPa
Clouds: Mostly Cloudy
Visibility: 6 miles , 10 km
Cloud details: Few Clouds 610 m
Mostly Cloudy 1524 m
2019/06/19 08:50 EGXP 190850Z 20002KT 9999 FEW020 BKN050 15/13 Q1007 RMK BLU
EGNJ - Humberside Airport, United Kingdom
Distance from station: E 46mi, 74km
Updated: Wed, 19-Jun-2019 9:50am BST
Mostly Cloudy
Mostly Cloudy
 Wind from ESE
Wind: ESE 5 mph , 7 km/h
Temperature: 15°C
Dew Point: 14°C
Humidity: 94%
Barometer: 1007 hPa
Clouds: Mostly Cloudy
Visibility: 6 miles , 9 km
Cloud details: Partly Cloudy 274 m
Mostly Cloudy 671 m
2019/06/19 08:50 EGNJ 190850Z 12004KT 9000 SCT009 BKN022 15/14 Q1007
 
EGXW - Waddington RAF, United Kingdom
Distance from station: ESE 46mi, 74km
Updated: Wed, 19-Jun-2019 9:50am BST
Light rain, Mostly cloudy
Light rain, Mostly cloudy
 Wind from SW
Wind: SW 2 mph , 4 km/h
Temperature: 15°C
Dew Point: 13°C
Humidity: 88%
Barometer: 1007 hPa
Summary: Light Rain
Clouds: Mostly Cloudy
Visibility: 6 miles , 10 km
Cloud details: Partly Cloudy 305 m
Mostly Cloudy 1372 m
2019/06/19 08:50 EGXW 190850Z 23002KT 9999 -RA SCT010 BKN045 15/13 Q1007 GRN TEMPO SCT006 RMK GRN TEMPO YLO1
EGXZ - Topcliffe RAF, United Kingdom
Distance from station: N 46mi, 75km
Updated: Wed, 19-Jun-2019 9:50am BST
Light rain, Mostly cloudy
Light rain, Mostly cloudy
 Wind from NNW
Wind: NNW 10 mph , 17 km/h
Temperature: 11°C
Dew Point: 11°C
Humidity: 100%
Barometer: 1008 hPa
Summary: Light Rain
Clouds: Mostly Cloudy
Visibility: 6 miles , 10 km
Cloud details: Mostly Cloudy 488 m
2019/06/19 08:50 EGXZ 190850Z AUTO 33009KT 9999 -RA BKN016/// 11/11 Q1008
 
EGXV - Leconfield, United Kingdom
Distance from station: ENE 48mi, 77km
Updated: Wed, 19-Jun-2019 9:50am BST
Light rain, Mostly cloudy
Light rain, Mostly cloudy
 Wind from SE
Wind: SE 5 mph , 7 km/h
Temperature: 15°C
Dew Point: 13°C
Humidity: 88%
Barometer: 1007 hPa
Summary: Light Rain
Clouds: Mostly Cloudy
Visibility: 6 miles , 10 km
Cloud details: Mostly Cloudy 244 m
Mostly Cloudy 640 m
2019/06/19 08:50 EGXV 190850Z AUTO 13004KT 9999 -RA BKN008/// BKN021/// 15/13 Q1007
EGNX - East Midlands, United Kingdom
Distance from station: S 50mi, 80km
Updated: Wed, 19-Jun-2019 9:50am BST
Mostly Cloudy
Mostly Cloudy
 Wind from W
Wind: W 6 mph , 9 km/h
Temperature: 15°C
Dew Point: 13°C
Humidity: 88%
Barometer: 1008 hPa
Clouds: Mostly Cloudy
Visibility: 5 miles , 8 km
Cloud details: Few Clouds 213 m
Mostly Cloudy 610 m
2019/06/19 08:50 EGNX 190850Z 28005KT 8000 FEW007 BKN020 15/13 Q1008

Metar display script from Saratoga-Weather.org

Data updates at regular intervals.